Cheikh El Mokrani — C6WD5 — position and weather

sailwx.info

Track history (hours):
 
Tides and Currents Weather Stations Pressure Air Temp Water Temp Dewpoint Dewpoint Depression Visibility Wind Speed Wind Dir Waves Ship Positions

Cheikh El Mokrani

Last reported at 2014-Dec-22 13:07 UTC. Time now 2014-Dec-22 15:35 UTC.
Position N 36°49' E 023°33'.

Length 220 m; draft 8 m.

Type: Ship (hazmat cat D). MMSI: 309979000.

Date/timePositionNaut miles runAvg speedWind from/ knotsBaromVisibWave heightAir tempDewpointWater temp
2014-Dec-22 13:07N 36°49' E 023°33'4716.5
2014-Dec-22 10:15N 37°35' E 023°45'1216.8
2014-Dec-22 09:33N 37°45' E 023°38'1211.9
2014-Dec-22 08:33N 37°51' E 023°25'6 5.3
2014-Dec-22 07:24N 37°58' E 023°24'0 0.0
2014-Dec-22 06:15N 37°58' E 023°24'0 0.0
2014-Dec-22 05:33N 37°58' E 023°24'0 0.0
2014-Dec-22 04:09N 37°58' E 023°24'0 0.0
2014-Dec-22 02:09N 37°58' E 023°24'0 0.0
2014-Dec-22 01:32N 37°58' E 023°24'0 0.0
2014-Dec-22 00:18N 37°58' E 023°24'0 0.0
2014-Dec-21 22:18N 37°58' E 023°24'0 0.0
2014-Dec-21 20:21N 37°58' E 023°24'0 0.0
2014-Dec-21 07:26N 37°58' E 023°24'0 0.2
2014-Dec-21 06:33N 37°57' E 023°24'3 3.1
2014-Dec-21 05:33N 37°55' E 023°21'8 8.1
2014-Dec-21 04:33N 37°50' E 023°29'10 9.6
2014-Dec-21 03:34N 37°48' E 023°41'1211.9
2014-Dec-21 02:33N 37°37' E 023°46'9 8.9
2014-Dec-21 01:33N 37°28' E 023°48'23 7.5
2014-Dec-20 22:30N 37°06' E 023°39'10 8.8
2014-Dec-20 21:20N 36°56' E 023°36'7 8.7
2014-Dec-20 20:33N 36°50' E 023°33'11 9.2
2014-Dec-20 19:20N 36°39' E 023°29'43112.4
2014-Dec-19 08:34N 36°27' E 014°33'1514.4
2014-Dec-19 07:31N 36°31' E 014°14'1414.9
2014-Dec-19 06:34N 36°34' E 013°57'1515.0
2014-Dec-19 05:34N 36°38' E 013°39'1614.7
2014-Dec-19 04:30N 36°41' E 013°20'  
Track history (hours):
 
Tides and Currents Weather Stations Pressure Air Temp Water Temp Dewpoint Dewpoint Depression Visibility Wind Speed Wind Dir Waves Ship Positions

Cheikh El Mokrani

Last reported at 2014-Dec-22 13:07 UTC. Time now 2014-Dec-22 15:35 UTC.
Position N 36°49' E 023°33'.

Length 220 m; draft 8 m.

Type: Ship (hazmat cat D). MMSI: 309979000.

Date/timePositionNaut miles runAvg speedWind from/ knotsBaromVisibWave heightAir tempDewpointWater temp
2014-Dec-22 13:07N 36°49' E 023°33'4716.5
2014-Dec-22 10:15N 37°35' E 023°45'1216.8
2014-Dec-22 09:33N 37°45' E 023°38'1211.9
2014-Dec-22 08:33N 37°51' E 023°25'6 5.3
2014-Dec-22 07:24N 37°58' E 023°24'0 0.0
2014-Dec-22 06:15N 37°58' E 023°24'0 0.0
2014-Dec-22 05:33N 37°58' E 023°24'0 0.0
2014-Dec-22 04:09N 37°58' E 023°24'0 0.0
2014-Dec-22 02:09N 37°58' E 023°24'0 0.0
2014-Dec-22 01:32N 37°58' E 023°24'0 0.0
2014-Dec-22 00:18N 37°58' E 023°24'0 0.0
2014-Dec-21 22:18N 37°58' E 023°24'0 0.0
2014-Dec-21 20:21N 37°58' E 023°24'0 0.0
2014-Dec-21 07:26N 37°58' E 023°24'0 0.2
2014-Dec-21 06:33N 37°57' E 023°24'3 3.1
2014-Dec-21 05:33N 37°55' E 023°21'8 8.1
2014-Dec-21 04:33N 37°50' E 023°29'10 9.6
2014-Dec-21 03:34N 37°48' E 023°41'1211.9
2014-Dec-21 02:33N 37°37' E 023°46'9 8.9
2014-Dec-21 01:33N 37°28' E 023°48'23 7.5
2014-Dec-20 22:30N 37°06' E 023°39'10 8.8
2014-Dec-20 21:20N 36°56' E 023°36'7 8.7
2014-Dec-20 20:33N 36°50' E 023°33'11 9.2
2014-Dec-20 19:20N 36°39' E 023°29'43112.4
2014-Dec-19 08:34N 36°27' E 014°33'1514.4
2014-Dec-19 07:31N 36°31' E 014°14'1414.9
2014-Dec-19 06:34N 36°34' E 013°57'1515.0
2014-Dec-19 05:34N 36°38' E 013°39'1614.7
2014-Dec-19 04:30N 36°41' E 013°20'  

Dump ship's entire track history